createdAt,value
2018-04-22T00:00:58.426Z,10.40
2018-04-22T00:03:31.498Z,10.40
2018-04-22T00:06:03.617Z,10.40
2018-04-22T00:08:36.100Z,10.30
2018-04-22T00:11:08.405Z,10.50
2018-04-22T00:13:40.554Z,10.40
2018-04-22T00:16:12.553Z,10.50
2018-04-22T00:18:44.751Z,10.50
2018-04-22T00:21:16.761Z,10.40
2018-04-22T00:23:48.938Z,10.30
2018-04-22T00:26:20.990Z,10.30
2018-04-22T00:28:53.150Z,10.20
2018-04-22T00:31:25.473Z,10.20
2018-04-22T00:33:58.600Z,10.10
2018-04-22T00:36:31.026Z,10.10
2018-04-22T00:39:03.910Z,10.20
2018-04-22T00:41:37.007Z,10.20
2018-04-22T00:44:09.877Z,10.20
2018-04-22T00:46:42.234Z,10.10
2018-04-22T00:49:14.667Z,10.20
2018-04-22T00:51:46.899Z,10.20
2018-04-22T00:54:26.124Z,10.30
2018-04-22T00:56:58.309Z,10.30
2018-04-22T00:59:31.477Z,10.20
2018-04-22T01:02:03.964Z,10.20
2018-04-22T01:04:36.113Z,10.20
2018-04-22T01:07:09.078Z,10.20
2018-04-22T01:09:41.399Z,10.20
2018-04-22T01:12:14.878Z,10.20
2018-04-22T01:14:47.053Z,10.10
2018-04-22T01:17:19.350Z,10.20
2018-04-22T01:19:52.234Z,10.10
2018-04-22T01:22:25.111Z,10.20
2018-04-22T01:24:58.176Z,10.10
2018-04-22T01:27:30.305Z,10.10
2018-04-22T01:30:02.588Z,10.10
2018-04-22T01:32:34.803Z,10.00
2018-04-22T01:35:07.902Z,10.00
2018-04-22T01:37:41.159Z,9.90
2018-04-22T01:40:13.441Z,9.90
2018-04-22T01:42:45.733Z,10.00
2018-04-22T01:45:18.548Z,9.90
2018-04-22T01:47:50.635Z,9.90
2018-04-22T01:50:23.702Z,9.90
2018-04-22T01:52:55.795Z,10.00
2018-04-22T01:55:27.958Z,10.00
2018-04-22T01:58:00.346Z,9.90
2018-04-22T02:00:33.181Z,9.90
2018-04-22T02:03:05.273Z,9.90
2018-04-22T02:05:37.403Z,9.90
2018-04-22T02:08:10.229Z,9.80
2018-04-22T02:10:42.309Z,9.80
2018-04-22T02:13:14.455Z,9.80
2018-04-22T02:15:47.094Z,9.90
2018-04-22T02:18:19.460Z,9.80
2018-04-22T02:20:52.517Z,9.80
2018-04-22T02:23:24.919Z,9.80
2018-04-22T02:25:57.016Z,9.80
2018-04-22T02:28:29.343Z,9.80
2018-04-22T02:31:01.693Z,9.80
2018-04-22T02:33:34.202Z,9.70
2018-04-22T02:36:07.343Z,9.70
2018-04-22T02:38:39.531Z,9.70
2018-04-22T02:41:11.692Z,9.70
2018-04-22T02:43:43.877Z,9.80
2018-04-22T02:46:16.021Z,9.80
2018-04-22T02:48:48.195Z,9.70
2018-04-22T02:51:20.749Z,9.60
2018-04-22T02:53:53.075Z,9.70
2018-04-22T02:56:26.209Z,9.70
2018-04-22T02:59:03.769Z,9.60
2018-04-22T03:01:41.508Z,9.60
2018-04-22T03:04:18.319Z,9.60
2018-04-22T03:06:53.020Z,9.50
2018-04-22T03:09:25.446Z,9.50
2018-04-22T03:11:58.312Z,9.50
2018-04-22T03:14:30.721Z,9.60
2018-04-22T03:17:03.580Z,9.50
2018-04-22T03:19:36.381Z,9.50
2018-04-22T03:22:08.476Z,9.50
2018-04-22T03:24:40.685Z,9.50
2018-04-22T03:27:12.821Z,9.50
2018-04-22T03:29:44.986Z,9.40
2018-04-22T03:32:17.057Z,9.40
2018-04-22T03:34:49.454Z,9.30
2018-04-22T03:37:21.942Z,9.30
2018-04-22T03:39:54.236Z,9.30
2018-04-22T03:42:26.480Z,9.20
2018-04-22T03:44:58.765Z,9.20
2018-04-22T03:47:31.623Z,9.20
2018-04-22T03:50:04.016Z,9.20
2018-04-22T03:52:36.975Z,9.10
2018-04-22T03:55:09.152Z,9.10
2018-04-22T03:57:41.329Z,9.10
2018-04-22T04:00:13.501Z,9.10
2018-04-22T04:02:46.355Z,9.10
2018-04-22T04:05:18.418Z,9.10
2018-04-22T04:07:50.558Z,9.10
2018-04-22T04:10:22.982Z,9.10
2018-04-22T04:12:55.367Z,9.20
2018-04-22T04:15:28.572Z,9.20
2018-04-22T04:21:42.521Z,9.20
2018-04-22T04:24:40.889Z,9.20
2018-04-22T04:27:27.695Z,9.30
2018-04-22T04:29:59.735Z,9.30
2018-04-22T04:32:31.852Z,9.30
2018-04-22T04:35:04.723Z,9.40
2018-04-22T04:37:37.104Z,9.30
2018-04-22T04:40:09.530Z,9.40
2018-04-22T04:42:41.763Z,9.40
2018-04-22T04:45:14.838Z,9.60
2018-04-22T04:47:48.153Z,9.70
2018-04-22T04:50:21.336Z,9.70
2018-04-22T04:52:54.227Z,9.80
2018-04-22T04:55:26.597Z,9.80
2018-04-22T04:57:59.372Z,9.90
2018-04-22T05:00:32.340Z,10.00
2018-04-22T05:03:04.468Z,10.00
2018-04-22T05:05:36.810Z,10.00
2018-04-22T05:08:09.340Z,10.10
2018-04-22T05:10:41.735Z,10.30
2018-04-22T05:13:14.701Z,10.40
2018-04-22T05:15:47.026Z,10.40
2018-04-22T05:18:20.081Z,10.60
2018-04-22T05:20:52.220Z,10.70
2018-04-22T05:23:24.624Z,10.70
2018-04-22T05:25:56.674Z,10.80
2018-04-22T05:28:28.765Z,11.00
2018-04-22T05:31:01.738Z,11.20
2018-04-22T05:33:33.976Z,11.20
2018-04-22T05:36:06.175Z,11.30
2018-04-22T05:38:39.225Z,11.40
2018-04-22T05:41:11.525Z,11.40
2018-04-22T05:43:43.563Z,11.50
2018-04-22T05:46:15.744Z,11.50
2018-04-22T05:48:47.948Z,11.60
2018-04-22T05:51:19.986Z,11.70
2018-04-22T05:53:52.343Z,11.70
2018-04-22T05:56:24.672Z,11.80
2018-04-22T05:58:57.573Z,11.90
2018-04-22T06:01:29.685Z,11.80
2018-04-22T06:04:01.741Z,11.90
2018-04-22T06:06:33.832Z,11.80
2018-04-22T06:09:05.942Z,11.90
2018-04-22T06:11:41.104Z,11.90
2018-04-22T06:14:13.293Z,12.00
2018-04-22T06:16:45.614Z,12.00
2018-04-22T06:19:17.738Z,12.00
2018-04-22T06:21:49.874Z,12.10
2018-04-22T06:24:22.038Z,12.20
2018-04-22T06:26:54.398Z,12.30
2018-04-22T06:29:26.803Z,12.40
2018-04-22T06:31:59.214Z,12.60
2018-04-22T06:34:32.326Z,13.20
2018-04-22T06:37:04.513Z,13.10
2018-04-22T06:39:37.113Z,13.70
2018-04-22T06:42:09.161Z,14.10
2018-04-22T06:44:41.361Z,14.60
2018-04-22T06:47:14.241Z,14.90
2018-04-22T06:49:46.383Z,14.90
2018-04-22T06:52:18.830Z,15.10
2018-04-22T06:54:51.268Z,15.20
2018-04-22T06:57:24.614Z,15.50
2018-04-22T06:59:56.803Z,15.40
2018-04-22T07:02:29.192Z,15.70
2018-04-22T07:05:02.086Z,15.60
2018-04-22T07:07:34.932Z,16.30
2018-04-22T07:10:07.048Z,16.20
2018-04-22T07:12:39.275Z,16.10
2018-04-22T07:15:11.961Z,16.20
2018-04-22T07:17:44.083Z,16.50
2018-04-22T07:20:16.452Z,16.90
2018-04-22T07:22:48.762Z,16.80
2018-04-22T07:25:21.545Z,16.60
2018-04-22T07:27:53.724Z,17.00
2018-04-22T07:30:26.060Z,17.10
2018-04-22T07:32:58.188Z,17.40
2018-04-22T07:35:31.128Z,17.60
2018-04-22T07:38:03.199Z,17.60
2018-04-22T07:40:35.556Z,18.10
2018-04-22T07:43:07.961Z,18.30
2018-04-22T07:45:40.278Z,18.40
2018-04-22T07:48:12.981Z,18.60
2018-04-22T07:50:45.277Z,19.10
2018-04-22T07:53:17.481Z,20.00
2018-04-22T07:55:51.010Z,21.40
2018-04-22T07:58:23.137Z,21.30
2018-04-22T08:00:55.535Z,22.10
2018-04-22T08:03:29.564Z,22.40
2018-04-22T08:06:02.634Z,22.70
2018-04-22T08:08:34.860Z,22.70
2018-04-22T08:11:07.361Z,22.60
2018-04-22T08:13:40.650Z,23.00
2018-04-22T08:16:12.839Z,22.90
2018-04-22T08:18:45.730Z,23.00
2018-04-22T08:21:18.106Z,23.10
2018-04-22T08:23:50.179Z,23.10
2018-04-22T08:26:22.780Z,22.70
2018-04-22T08:28:54.865Z,22.70
2018-04-22T08:31:26.989Z,22.80
2018-04-22T08:33:59.427Z,22.20
2018-04-22T08:36:31.560Z,23.30
2018-04-22T08:39:03.717Z,23.20
2018-04-22T08:41:36.821Z,22.80
2018-04-22T08:44:09.118Z,22.80
2018-04-22T08:46:41.457Z,22.60
2018-04-22T08:49:13.818Z,22.70
2018-04-22T08:51:46.145Z,23.40
2018-04-22T08:54:19.065Z,22.20
2018-04-22T08:56:51.583Z,22.20
2018-04-22T08:59:23.943Z,22.50
2018-04-22T09:01:56.210Z,23.10
2018-04-22T09:04:28.631Z,23.30
2018-04-22T09:07:01.550Z,23.50
2018-04-22T09:09:33.680Z,23.60
2018-04-22T09:12:06.546Z,23.80
2018-04-22T09:14:39.582Z,23.80
2018-04-22T09:17:11.686Z,23.90
2018-04-22T09:19:44.034Z,24.10
2018-04-22T09:22:16.125Z,24.00
2018-04-22T09:24:48.295Z,23.90
2018-04-22T09:27:20.638Z,24.00
2018-04-22T09:29:52.901Z,24.00
2018-04-22T09:32:25.097Z,24.20
2018-04-22T09:34:57.119Z,23.70
2018-04-22T09:37:29.277Z,23.70
2018-04-22T09:40:03.427Z,23.50
2018-04-22T09:42:36.212Z,23.50
2018-04-22T09:45:08.585Z,24.40
2018-04-22T09:47:41.113Z,25.10
2018-04-22T09:50:14.156Z,24.40
2018-04-22T09:52:47.051Z,24.40
2018-04-22T09:55:19.368Z,24.10
2018-04-22T09:57:52.359Z,24.30
2018-04-22T10:00:24.475Z,24.10
2018-04-22T10:02:56.566Z,24.00
2018-04-22T10:05:28.852Z,23.50
2018-04-22T10:08:01.258Z,23.30
2018-04-22T10:10:33.362Z,23.00
2018-04-22T10:13:05.696Z,22.80
2018-04-22T10:15:38.745Z,22.30
2018-04-22T10:18:11.920Z,22.50
2018-04-22T10:20:45.067Z,22.50
2018-04-22T10:23:17.157Z,22.40
2018-04-22T10:25:50.353Z,22.20
2018-04-22T10:28:22.673Z,22.30
2018-04-22T10:30:55.251Z,22.20
2018-04-22T10:33:27.359Z,22.40
2018-04-22T10:36:00.048Z,22.70
2018-04-22T10:38:32.753Z,22.70
2018-04-22T10:41:05.561Z,23.20
2018-04-22T10:43:38.786Z,23.20
2018-04-22T10:46:10.953Z,23.20
2018-04-22T10:48:43.545Z,23.10
2018-04-22T10:51:15.706Z,23.20
2018-04-22T10:53:48.612Z,23.20
2018-04-22T10:56:20.760Z,23.10
2018-04-22T10:58:53.148Z,23.10
2018-04-22T11:01:26.311Z,22.70
2018-04-22T11:03:58.685Z,22.90
2018-04-22T11:06:30.941Z,22.70
2018-04-22T11:09:05.625Z,22.70
2018-04-22T11:11:37.846Z,22.80
2018-04-22T11:14:09.998Z,22.90
2018-04-22T11:16:42.323Z,22.80
2018-04-22T11:19:14.628Z,22.80
2018-04-22T11:21:46.764Z,22.80
2018-04-22T11:24:19.153Z,22.90
2018-04-22T11:26:52.285Z,23.00
2018-04-22T11:29:24.526Z,23.00
2018-04-22T11:31:56.638Z,23.30
2018-04-22T11:34:28.694Z,23.10
2018-04-22T11:37:01.860Z,23.10
2018-04-22T11:39:34.004Z,23.10
2018-04-22T11:42:06.854Z,22.90
2018-04-22T11:44:38.998Z,22.90
2018-04-22T11:47:11.332Z,22.90
2018-04-22T11:49:44.455Z,23.20
2018-04-22T11:52:16.627Z,23.20
2018-04-22T11:54:49.045Z,23.40
2018-04-22T11:57:25.833Z,23.40
2018-04-22T12:00:01.289Z,23.60
2018-04-22T12:02:33.324Z,23.60
2018-04-22T12:05:05.517Z,23.80
2018-04-22T12:07:43.102Z,24.00
2018-04-22T12:10:15.944Z,23.80
2018-04-22T12:12:48.110Z,23.80
2018-04-22T12:15:23.495Z,23.80
2018-04-22T12:17:55.717Z,23.90
2018-04-22T12:20:32.103Z,23.80
2018-04-22T12:23:08.410Z,23.80
2018-04-22T12:25:40.641Z,23.80
2018-04-22T12:28:12.877Z,23.90
2018-04-22T12:30:45.093Z,23.80
2018-04-22T12:33:18.173Z,23.80
2018-04-22T12:35:50.378Z,23.80
2018-04-22T12:38:22.688Z,23.90
2018-04-22T12:40:54.994Z,24.00
2018-04-22T12:43:27.979Z,23.90
2018-04-22T12:46:00.462Z,23.90
2018-04-22T12:48:33.569Z,23.80
2018-04-22T12:51:06.443Z,23.80
2018-04-22T12:53:39.387Z,23.70
2018-04-22T12:56:11.460Z,23.90
2018-04-22T12:58:43.623Z,24.00
2018-04-22T13:01:15.925Z,24.00
2018-04-22T13:03:48.101Z,24.10
2018-04-22T13:06:21.284Z,24.20
2018-04-22T13:08:54.352Z,24.10
2018-04-22T13:11:26.721Z,24.10
2018-04-22T13:14:00.417Z,24.20
2018-04-22T13:16:33.389Z,24.20
2018-04-22T13:19:05.534Z,24.20
2018-04-22T13:21:37.849Z,24.20
2018-04-22T13:24:10.334Z,24.30
2018-04-22T13:26:42.714Z,24.20
2018-04-22T13:29:14.853Z,24.30
2018-04-22T13:31:47.156Z,24.30
2018-04-22T13:34:19.477Z,24.30
2018-04-22T13:36:51.930Z,24.30
2018-04-22T13:39:24.067Z,24.50
2018-04-22T13:41:56.354Z,24.50
2018-04-22T13:44:29.268Z,24.60
2018-04-22T13:47:01.644Z,24.60
2018-04-22T13:49:33.980Z,24.60
2018-04-22T13:52:07.826Z,24.60
2018-04-22T13:54:40.182Z,24.60
2018-04-22T13:57:12.377Z,24.70
2018-04-22T13:59:44.464Z,24.70
2018-04-22T14:02:16.532Z,24.60
2018-04-22T14:04:52.412Z,24.70
2018-04-22T14:07:24.741Z,24.80
2018-04-22T14:09:56.958Z,24.80
2018-04-22T14:12:29.723Z,24.80
2018-04-22T14:15:01.791Z,24.80
2018-04-22T14:17:34.625Z,24.80
2018-04-22T14:20:06.805Z,24.70
2018-04-22T14:22:38.885Z,24.90
2018-04-22T14:25:11.016Z,25.00
2018-04-22T14:27:43.835Z,25.00
2018-04-22T14:30:16.000Z,25.00
2018-04-22T14:32:48.194Z,25.00
2018-04-22T14:35:21.136Z,24.90
2018-04-22T14:37:53.320Z,24.80
2018-04-22T14:40:25.454Z,24.80
2018-04-22T14:42:57.545Z,24.80
2018-04-22T14:45:42.926Z,24.90
2018-04-22T14:48:15.106Z,25.00
2018-04-22T14:50:47.240Z,25.10
2018-04-22T14:53:20.093Z,25.30
2018-04-22T14:55:52.970Z,25.20
2018-04-22T14:58:25.200Z,25.20
2018-04-22T15:00:57.464Z,25.20
2018-04-22T15:03:29.785Z,25.30
2018-04-22T15:06:02.623Z,25.40
2018-04-22T15:08:34.791Z,25.30
2018-04-22T15:11:06.887Z,25.40
2018-04-22T15:13:38.906Z,25.50
2018-04-22T15:16:11.021Z,25.40
2018-04-22T15:18:43.135Z,25.30
2018-04-22T15:21:15.256Z,25.30
2018-04-22T15:23:47.638Z,25.30
2018-04-22T15:26:24.645Z,25.40
2018-04-22T15:28:57.744Z,25.50
2018-04-22T15:31:29.939Z,25.40
2018-04-22T15:34:02.333Z,25.50
2018-04-22T15:36:34.759Z,25.50
2018-04-22T15:39:08.344Z,25.40
2018-04-22T15:41:41.389Z,25.40
2018-04-22T15:44:13.646Z,25.30
2018-04-22T15:46:46.248Z,25.30
2018-04-22T15:49:19.395Z,25.30
2018-04-22T15:51:51.864Z,25.30
2018-04-22T15:54:24.481Z,25.20
2018-04-22T15:56:56.818Z,25.10
2018-04-22T15:59:29.974Z,25.00
2018-04-22T16:02:03.165Z,24.90
2018-04-22T16:04:36.170Z,24.80
2018-04-22T16:07:08.423Z,24.80
2018-04-22T16:09:40.833Z,24.70
2018-04-22T16:12:13.150Z,24.60
2018-04-22T16:14:46.203Z,24.50
2018-04-22T16:17:18.509Z,24.60
2018-04-22T16:19:50.990Z,24.40
2018-04-22T16:22:24.155Z,24.40
2018-04-22T16:24:56.469Z,24.40
2018-04-22T16:27:29.571Z,24.30
2018-04-22T16:30:03.021Z,24.30
2018-04-22T16:32:35.211Z,24.20
2018-04-22T16:35:07.759Z,24.10
2018-04-22T16:37:40.032Z,24.10
2018-04-22T16:40:12.239Z,23.90
2018-04-22T16:42:46.400Z,23.70
2018-04-22T16:45:18.966Z,23.70
2018-04-22T16:47:51.356Z,23.60
2018-04-22T16:50:23.637Z,23.50
2018-04-22T16:52:55.988Z,23.50
2018-04-22T16:55:28.794Z,23.40
2018-04-22T16:58:01.500Z,23.30
2018-04-22T17:00:34.707Z,23.20
2018-04-22T17:03:07.051Z,23.20
2018-04-22T17:05:39.312Z,23.20
2018-04-22T17:08:11.700Z,23.10
2018-04-22T17:10:44.750Z,23.10
2018-04-22T17:13:17.044Z,23.10
2018-04-22T17:15:49.855Z,23.00
2018-04-22T17:18:23.028Z,22.80
2018-04-22T17:20:55.202Z,22.80
2018-04-22T17:23:28.119Z,23.00
2018-04-22T17:26:00.242Z,22.90
2018-04-22T17:28:32.485Z,22.40
2018-04-22T17:31:04.945Z,22.10
2018-04-22T17:33:37.173Z,21.70
2018-04-22T17:36:10.059Z,21.10
2018-04-22T17:38:43.290Z,21.10
2018-04-22T17:41:15.645Z,21.00
2018-04-22T17:43:47.953Z,20.70
2018-04-22T17:46:20.037Z,20.50
2018-04-22T17:48:52.335Z,20.40
2018-04-22T17:51:25.211Z,20.20
2018-04-22T17:53:58.261Z,20.00
2018-04-22T17:56:30.441Z,20.00
2018-04-22T17:59:02.772Z,19.90
2018-04-22T18:01:34.851Z,19.80
2018-04-22T18:04:06.925Z,19.70
2018-04-22T18:06:39.039Z,19.70
2018-04-22T18:09:16.276Z,19.90
2018-04-22T18:11:48.549Z,19.90
2018-04-22T18:14:20.908Z,20.10
2018-04-22T18:16:53.151Z,20.10
2018-04-22T18:19:26.176Z,20.10
2018-04-22T18:21:58.591Z,20.10
2018-04-22T18:24:31.726Z,19.30
2018-04-22T18:27:04.013Z,19.20
2018-04-22T18:29:36.244Z,19.00
2018-04-22T18:32:08.472Z,18.60
2018-04-22T18:34:41.354Z,18.30
2018-04-22T18:37:13.729Z,18.20
2018-04-22T18:39:45.907Z,18.10
2018-04-22T18:42:17.947Z,18.10
2018-04-22T18:44:50.230Z,17.90
2018-04-22T18:47:22.311Z,17.80
2018-04-22T18:49:54.678Z,17.70
2018-04-22T18:52:27.113Z,17.80
2018-04-22T18:54:59.218Z,17.70
2018-04-22T18:57:31.511Z,17.60
2018-04-22T19:00:04.581Z,17.60
2018-04-22T19:02:36.878Z,17.50
2018-04-22T19:05:09.351Z,17.50
2018-04-22T19:07:41.552Z,17.60
2018-04-22T19:10:13.976Z,17.70
2018-04-22T19:12:46.267Z,17.50
2018-04-22T19:15:19.303Z,17.50
2018-04-22T19:17:51.499Z,17.50
2018-04-22T19:20:23.834Z,17.50
2018-04-22T19:22:56.816Z,17.50
2018-04-22T19:25:29.115Z,17.50
2018-04-22T19:28:01.540Z,17.30
2018-04-22T19:30:33.653Z,17.30
2018-04-22T19:33:05.734Z,17.30
2018-04-22T19:35:38.122Z,17.30
2018-04-22T19:38:10.380Z,17.40
2018-04-22T19:40:42.791Z,17.30
2018-04-22T19:43:15.137Z,17.30
2018-04-22T19:45:48.084Z,17.30
2018-04-22T19:48:20.468Z,17.30
2018-04-22T19:50:52.851Z,17.20
2018-04-22T19:53:26.007Z,17.10
2018-04-22T19:55:58.246Z,17.10
2018-04-22T19:58:31.198Z,17.00
2018-04-22T20:01:04.404Z,17.00
2018-04-22T20:03:37.374Z,16.90
2018-04-22T20:06:09.620Z,16.90
2018-04-22T20:08:42.264Z,16.90
2018-04-22T20:11:14.610Z,16.90
2018-04-22T20:13:47.625Z,16.80
2018-04-22T20:16:19.744Z,16.80
2018-04-22T20:18:51.821Z,16.80
2018-04-22T20:21:24.117Z,16.70
2018-04-22T20:23:57.203Z,16.60
2018-04-22T20:26:30.313Z,16.50
2018-04-22T20:29:02.642Z,16.50
2018-04-22T20:31:34.767Z,16.50
2018-04-22T20:34:06.872Z,16.40
2018-04-22T20:36:39.039Z,16.40
2018-04-22T20:39:11.309Z,16.40
2018-04-22T20:41:43.522Z,16.40
2018-04-22T20:44:15.640Z,16.40
2018-04-22T20:46:47.918Z,16.30
2018-04-22T20:49:19.977Z,16.20
2018-04-22T20:51:52.128Z,16.20
2018-04-22T20:54:24.284Z,16.20
2018-04-22T20:56:56.627Z,16.20
2018-04-22T20:59:28.754Z,16.10
2018-04-22T21:02:00.904Z,16.10
2018-04-22T21:04:33.340Z,16.10
2018-04-22T21:07:05.434Z,16.10
2018-04-22T21:09:37.786Z,16.10
2018-04-22T21:12:09.890Z,16.10
2018-04-22T21:14:42.263Z,16.10
2018-04-22T21:17:14.428Z,16.00
2018-04-22T21:19:46.590Z,16.00
2018-04-22T21:22:18.907Z,16.00
2018-04-22T21:24:51.104Z,15.90
2018-04-22T21:27:23.330Z,15.90
2018-04-22T21:29:56.194Z,15.90
2018-04-22T21:32:29.260Z,15.90
2018-04-22T21:35:01.316Z,15.80
2018-04-22T21:37:34.384Z,15.80
2018-04-22T21:40:06.692Z,15.70
2018-04-22T21:42:38.772Z,15.80
2018-04-22T21:45:10.846Z,15.70
2018-04-22T21:47:42.953Z,15.70
2018-04-22T21:50:15.309Z,15.70
2018-04-22T21:52:47.441Z,15.70
2018-04-22T21:55:19.785Z,15.60
2018-04-22T21:57:52.649Z,15.70
2018-04-22T22:00:24.994Z,15.60
2018-04-22T22:02:57.114Z,15.70
2018-04-22T22:05:29.654Z,15.60
2018-04-22T22:08:02.755Z,15.50
2018-04-22T22:10:35.470Z,15.50
2018-04-22T22:13:14.299Z,15.50
2018-04-22T22:15:46.499Z,15.40
2018-04-22T22:18:18.542Z,15.40
2018-04-22T22:20:50.877Z,15.40
2018-04-22T22:23:23.016Z,15.40
2018-04-22T22:25:55.908Z,15.40
2018-04-22T22:28:28.929Z,15.40
2018-04-22T22:31:01.255Z,15.40
2018-04-22T22:33:34.476Z,15.30
2018-04-22T22:36:06.831Z,15.30
2018-04-22T22:38:39.773Z,15.20
2018-04-22T22:41:11.833Z,15.20
2018-04-22T22:43:43.980Z,15.20
2018-04-22T22:46:16.214Z,15.20
2018-04-22T22:48:49.078Z,15.20
2018-04-22T22:51:21.132Z,15.20
2018-04-22T22:53:53.411Z,15.20
2018-04-22T22:56:26.047Z,15.10
2018-04-22T22:58:58.366Z,15.10
2018-04-22T23:01:31.433Z,15.00
2018-04-22T23:04:03.617Z,15.00
2018-04-22T23:06:36.269Z,15.10
2018-04-22T23:09:08.665Z,15.10
2018-04-22T23:11:40.990Z,15.00
2018-04-22T23:14:13.245Z,15.00
2018-04-22T23:16:45.353Z,15.00
2018-04-22T23:19:17.415Z,15.00
2018-04-22T23:21:49.694Z,15.10
2018-04-22T23:24:22.405Z,15.00
2018-04-22T23:26:54.501Z,15.00
2018-04-22T23:29:26.931Z,14.80
2018-04-22T23:31:59.163Z,14.70
2018-04-22T23:34:31.361Z,14.70
2018-04-22T23:37:03.739Z,14.70
2018-04-22T23:39:36.242Z,14.60
2018-04-22T23:42:09.169Z,14.60
2018-04-22T23:44:41.295Z,14.50
2018-04-22T23:47:14.168Z,14.50
2018-04-22T23:49:46.343Z,14.50
2018-04-22T23:52:19.185Z,14.40
2018-04-22T23:54:51.497Z,14.40
2018-04-22T23:57:24.450Z,14.40
2018-04-22T23:59:56.526Z,14.40
